Time;durP1;ratioP1;P1;durP2;ratioP2;P2;SDS_P1;SDS_P2;PMS_P1;PMS_P2;Temp;Humidity;BMP_temperature;BMP_pressure;BME280_temperature;BME280_humidity;BME280_pressure;Samples;Min_cycle;Max_cycle;Signal;HPM_P1;HPM_P2
2022/12/07 00:01:38;;;;;;;20.98;9.05;;;;;;;9.16;100.00;101657.78;4994474;28;20035;-53
2022/12/07 00:04:05;;;;;;;17.05;9.27;;;;;;;9.10;100.00;101647.78;4994399;28;20034;-53
2022/12/07 00:06:37;;;;;;;25.90;10.52;;;;;;;9.05;100.00;101645.63;4996676;28;20059;-55
2022/12/07 00:09:04;;;;;;;22.80;10.55;;;;;;;8.81;100.00;101657.09;4995194;28;20034;-51
2022/12/07 00:11:30;;;;;;;22.08;9.77;;;;;;;8.70;100.00;101659.06;4996029;28;20037;-50
2022/12/07 00:13:58;;;;;;;16.55;9.95;;;;;;;8.87;100.00;101659.09;4995692;28;20085;-53
2022/12/07 00:16:27;;;;;;;17.10;9.80;;;;;;;8.86;100.00;101663.59;4996653;28;20031;-53
2022/12/07 00:18:54;;;;;;;17.13;9.68;;;;;;;8.82;100.00;101656.09;4996243;28;20035;-54
2022/12/07 00:21:22;;;;;;;23.90;9.45;;;;;;;8.59;100.00;101654.03;4996527;28;20035;-53
2022/12/07 00:23:49;;;;;;;18.02;9.73;;;;;;;8.69;100.00;101656.56;4995205;28;20102;-53
2022/12/07 00:26:33;;;;;;;17.67;10.02;;;;;;;8.75;100.00;101659.41;4979526;28;20026;-54
2022/12/07 00:29:04;;;;;;;19.98;10.68;;;;;;;8.68;100.00;101644.25;4998344;28;20094;-55
2022/12/07 00:31:38;;;;;;;25.05;9.88;;;;;;;8.63;100.00;101646.53;5013314;28;20038;-51
2022/12/07 00:34:05;;;;;;;21.67;10.85;;;;;;;8.65;100.00;101645.38;5014988;28;20045;-52
2022/12/07 00:36:30;;;;;;;18.00;9.98;;;;;;;8.65;100.00;101650.72;5015540;28;20101;-51
2022/12/07 00:38:58;;;;;;;19.17;11.13;;;;;;;8.71;100.00;101655.38;5015318;28;20049;-51
2022/12/07 00:41:26;;;;;;;24.08;11.55;;;;;;;8.90;100.00;101648.09;5015598;28;20497;-54
2022/12/07 00:43:52;;;;;;;18.38;11.10;;;;;;;8.88;100.00;101644.75;5015314;28;20049;-54
2022/12/07 00:46:19;;;;;;;19.90;10.55;;;;;;;8.99;100.00;101646.28;5014407;28;20026;-53
2022/12/07 00:48:45;;;;;;;21.73;10.15;;;;;;;8.88;100.00;101642.94;5015203;28;20057;-51
2022/12/07 00:51:11;;;;;;;21.35;9.70;;;;;;;8.45;100.00;101642.97;5015660;28;20050;-55
2022/12/07 00:53:38;;;;;;;18.13;10.70;;;;;;;8.47;100.00;101642.81;5015188;28;20034;-49
2022/12/07 00:56:15;;;;;;;21.35;11.63;;;;;;;8.65;100.00;101639.19;5015174;28;20044;-51
2022/12/07 00:58:41;;;;;;;18.47;10.67;;;;;;;8.42;100.00;101631.78;5015370;28;20043;-55
2022/12/07 01:01:09;;;;;;;22.58;12.35;;;;;;;8.71;100.00;101625.25;5015212;28;20106;-51
2022/12/07 01:03:35;;;;;;;22.13;11.80;;;;;;;8.65;100.00;101633.88;5015048;28;20073;-53
2022/12/07 01:06:01;;;;;;;23.77;10.68;;;;;;;8.80;100.00;101621.56;5015123;28;20035;-56
2022/12/07 01:08:27;;;;;;;23.50;11.17;;;;;;;8.74;100.00;101628.38;5014903;28;20060;-55
2022/12/07 01:11:05;;;;;;;19.75;10.43;;;;;;;8.65;100.00;101626.72;5014964;28;20026;-53
2022/12/07 01:13:31;;;;;;;26.40;10.43;;;;;;;8.56;100.00;101631.19;5013890;28;20034;-51
2022/12/07 01:16:03;;;;;;;19.65;11.63;;;;;;;8.53;100.00;101628.84;5014179;28;20074;-55
2022/12/07 01:18:31;;;;;;;20.75;10.10;;;;;;;8.49;100.00;101630.16;5014843;28;20106;-54
2022/12/07 01:20:58;;;;;;;26.40;11.07;;;;;;;8.36;100.00;101629.75;5014943;28;20030;-54
2022/12/07 01:23:24;;;;;;;17.60;10.75;;;;;;;8.31;100.00;101632.94;5014658;28;20045;-55
2022/12/07 01:26:02;;;;;;;19.17;10.30;;;;;;;8.30;100.00;101631.22;5014593;28;20038;-55
2022/12/07 01:28:28;;;;;;;19.75;10.73;;;;;;;8.25;100.00;101638.88;5012969;28;20272;-53
2022/12/07 01:31:05;;;;;;;21.23;10.57;;;;;;;8.26;100.00;101629.88;5014576;28;20077;-54
2022/12/07 01:33:33;;;;;;;22.00;10.68;;;;;;;8.13;100.00;101638.31;5012342;28;20098;-53
2022/12/07 01:36:03;;;;;;;31.80;10.43;;;;;;;8.22;100.00;101639.19;5012039;28;20081;-53
2022/12/07 01:38:30;;;;;;;25.42;10.35;;;;;;;8.22;100.00;101634.72;5013301;28;20046;-50
2022/12/07 01:40:57;;;;;;;20.20;9.68;;;;;;;8.24;100.00;101634.53;5013693;28;20093;-52
2022/12/07 01:43:24;;;;;;;19.60;9.57;;;;;;;8.20;100.00;101635.88;5014300;28;20042;-52
2022/12/07 01:45:49;;;;;;;18.85;9.02;;;;;;;8.21;100.00;101642.88;4996955;28;20042;-51
2022/12/07 01:48:19;;;;;;;22.53;9.97;;;;;;;8.16;100.00;101643.34;5014405;28;20030;-53
2022/12/07 01:50:50;;;;;;;19.63;8.02;;;;;;;8.09;100.00;101640.50;5012655;28;20276;-54
2022/12/07 01:53:17;;;;;;;24.45;8.65;;;;;;;7.96;100.00;101635.59;5014226;28;20038;-52
2022/12/07 01:55:48;;;;;;;18.52;8.73;;;;;;;7.96;100.00;101634.75;5014017;28;20041;-53
2022/12/07 01:58:15;;;;;;;18.48;9.02;;;;;;;7.80;100.00;101630.19;5013789;28;20038;-51
2022/12/07 02:00:41;;;;;;;14.73;8.10;;;;;;;7.95;100.00;101622.44;5013824;28;20097;-55
2022/12/07 02:03:15;;;;;;;18.77;7.43;;;;;;;7.92;100.00;101628.06;5014030;28;20033;-54
2022/12/07 02:05:41;;;;;;;17.33;8.27;;;;;;;7.88;100.00;101619.56;5011657;28;20046;-52
2022/12/07 02:08:09;;;;;;;19.98;7.88;;;;;;;7.85;100.00;101620.72;5013800;28;20034;-54
2022/12/07 02:10:34;;;;;;;;;;;;;;;7.94;100.00;101612.78;5014396;28;20042;-51
2022/12/07 02:13:16;;;;;;;14.83;7.30;;;;;;;8.01;100.00;101616.47;5013934;28;19921;-52
2022/12/07 02:15:59;;;;;;;13.27;7.32;;;;;;;8.06;100.00;101621.31;5011782;28;20039;-53
2022/12/07 02:18:49;;;;;;;11.77;7.15;;;;;;;8.03;100.00;101619.78;5011853;28;20037;-49
2022/12/07 02:21:43;;;;;;;20.08;7.10;;;;;;;8.40;100.00;101623.09;5012755;28;20039;-49
2022/12/07 02:24:22;;;;;;;16.98;7.63;;;;;;;7.93;100.00;101625.25;5011945;28;20109;-51
2022/12/07 02:27:00;;;;;;;13.20;7.40;;;;;;;7.86;100.00;101626.88;5013588;28;20034;-51
2022/12/07 02:29:34;;;;;;;19.80;7.53;;;;;;;9.02;100.00;101619.25;5007467;28;20050;-53
2022/12/07 02:32:25;;;;;;;17.65;8.20;;;;;;;8.56;100.00;101630.38;4997114;28;20069;-53
2022/12/07 02:35:03;;;;;;;15.48;7.57;;;;;;;9.76;100.00;101626.38;4993130;28;20037;-48
2022/12/07 02:37:51;;;;;;;13.88;7.15;;;;;;;10.08;100.00;101627.28;4999982;28;20035;-53
2022/12/07 02:40:38;;;;;;;18.95;6.90;;;;;;;10.03;100.00;101635.00;4996298;28;20043;-49
2022/12/07 02:43:12;;;;;;;26.48;7.63;;;;;;;9.95;100.00;101629.69;4999211;28;20058;-54
2022/12/07 02:45:40;;;;;;;12.43;6.72;;;;;;;10.16;100.00;101631.78;4999530;28;20066;-50
2022/12/07 02:48:08;;;;;;;10.75;6.03;;;;;;;9.74;100.00;101633.75;5001331;28;20034;-51
2022/12/07 02:50:34;;;;;;;18.75;7.18;;;;;;;10.01;100.00;101626.31;5002327;28;20034;-53
2022/12/07 02:53:00;;;;;;;14.90;6.33;;;;;;;9.71;100.00;101626.06;4999614;28;20058;-53
2022/12/07 02:55:36;;;;;;;14.27;6.05;;;;;;;10.36;100.00;101628.69;5000619;28;20276;-52
2022/12/07 02:58:21;;;;;;;14.10;6.60;;;;;;;10.64;100.00;101620.19;4998612;28;20125;-50
2022/12/07 03:01:21;;;;;;;11.48;5.40;;;;;;;8.80;100.00;101620.75;4998329;28;20051;-50
2022/12/07 03:04:02;;;;;;;13.07;5.53;;;;;;;8.26;100.00;101620.06;4996830;28;20038;-54
2022/12/07 03:06:43;;;;;;;10.80;5.03;;;;;;;8.28;100.00;101617.22;4982474;28;20030;-54
2022/12/07 03:09:18;;;;;;;16.15;5.50;;;;;;;8.32;100.00;101618.59;4997789;28;20035;-51
2022/12/07 03:11:50;;;;;;;20.40;5.15;;;;;;;8.26;100.00;101617.41;5001487;28;20074;-52
2022/12/07 03:14:24;;;;;;;12.35;4.95;;;;;;;8.33;100.00;101622.94;5005988;28;20042;-54
2022/12/07 03:16:58;;;;;;;17.20;5.65;;;;;;;8.43;100.00;101620.97;5004671;28;20034;-51
2022/12/07 03:19:26;;;;;;;10.43;4.55;;;;;;;8.44;100.00;101613.81;5003466;28;20038;-53
2022/12/07 03:22:09;;;;;;;12.45;4.88;;;;;;;8.41;100.00;101612.28;5002971;28;20041;-51
2022/12/07 03:24:49;;;;;;;20.88;5.10;;;;;;;8.46;100.00;101614.47;5001585;28;20102;-52
2022/12/07 03:27:24;;;;;;;13.45;5.35;;;;;;;8.52;100.00;101613.00;5002773;28;20034;-51
2022/12/07 03:29:57;;;;;;;11.43;3.67;;;;;;;8.27;100.00;101612.91;5010045;28;20048;-51
2022/12/07 03:32:30;;;;;;;14.35;4.35;;;;;;;8.13;100.00;101609.88;5015167;28;20035;-53
2022/12/07 03:35:05;;;;;;;8.90;3.88;;;;;;;8.08;100.00;101603.34;4999948;28;20034;-54
2022/12/07 03:37:34;;;;;;;9.00;4.55;;;;;;;7.88;100.00;101612.41;5016983;28;20034;-53
2022/12/07 03:40:06;;;;;;;8.32;3.65;;;;;;;7.90;100.00;101609.56;5016058;28;20062;-53
2022/12/07 03:42:32;;;;;;;17.40;4.45;;;;;;;7.89;100.00;101608.75;5014345;28;20034;-53
2022/12/07 03:44:59;;;;;;;7.75;4.18;;;;;;;7.94;100.00;101618.91;5016264;28;20049;-52
2022/12/07 03:47:32;;;;;;;10.90;4.28;;;;;;;8.04;100.00;101621.47;5016556;28;20027;-51
2022/12/07 03:50:07;;;;;;;11.40;4.55;;;;;;;8.14;100.00;101619.53;5016542;28;20069;-53
2022/12/07 03:52:41;;;;;;;9.27;3.53;;;;;;;8.24;100.00;101610.56;5014586;28;20586;-53
2022/12/07 03:55:24;;;;;;;7.68;3.67;;;;;;;8.28;100.00;101603.91;5016390;28;20034;-54
2022/12/07 03:57:55;;;;;;;10.68;3.20;;;;;;;8.35;100.00;101606.78;5015276;28;20038;-48
2022/12/07 04:00:21;;;;;;;11.27;4.20;;;;;;;10.51;100.00;101610.94;5016033;28;20040;-52
2022/12/07 04:02:51;;;;;;;11.90;3.83;;;;;;;8.92;100.00;101603.41;5016151;28;20034;-51
2022/12/07 04:05:17;;;;;;;11.15;3.33;;;;;;;8.52;100.00;101607.69;5014229;28;20085;-54
2022/12/07 04:07:43;;;;;;;12.25;3.88;;;;;;;8.53;100.00;101604.00;5015971;28;20041;-55
2022/12/07 04:10:09;;;;;;;7.90;3.20;;;;;;;8.35;100.00;101607.63;5016261;28;20030;-54
2022/12/07 04:12:34;;;;;;;12.60;4.80;;;;;;;8.29;100.00;101600.25;5016131;28;20264;-52
2022/12/07 04:15:00;;;;;;;23.93;3.90;;;;;;;8.25;100.00;101602.41;5016314;28;20049;-54
2022/12/07 04:17:25;;;;;;;8.52;3.28;;;;;;;8.19;100.00;101597.75;5015929;28;20114;-51
2022/12/07 04:19:51;;;;;;;10.13;4.27;;;;;;;8.16;100.00;101598.03;5015029;28;20034;-54
2022/12/07 04:22:16;;;;;;;10.30;2.90;;;;;;;7.89;100.00;101603.44;5015939;28;20138;-50
2022/12/07 04:24:42;;;;;;;12.73;3.03;;;;;;;7.99;100.00;101597.13;5016205;28;20110;-51
2022/12/07 04:27:07;;;;;;;7.03;3.80;;;;;;;8.00;100.00;101599.66;5015650;28;20069;-52
2022/12/07 04:29:33;;;;;;;15.87;3.17;;;;;;;8.04;100.00;101594.81;5015378;28;20053;-49
2022/12/07 04:31:59;;;;;;;14.83;3.27;;;;;;;8.19;100.00;101600.41;5015592;28;20037;-52
2022/12/07 04:34:24;;;;;;;10.90;3.00;;;;;;;7.94;100.00;101602.13;5015582;28;20283;-51
2022/12/07 04:36:50;;;;;;;9.90;2.88;;;;;;;7.97;100.00;101607.13;5015521;28;20057;-54
2022/12/07 04:39:27;;;;;;;12.70;2.60;;;;;;;7.91;100.00;101610.44;5015591;28;20098;-54
2022/12/07 04:41:53;;;;;;;11.50;2.30;;;;;;;7.58;100.00;101603.09;5014537;28;20046;-51
2022/12/07 04:44:20;;;;;;;9.68;2.42;;;;;;;7.97;100.00;101601.78;5015594;28;20034;-53
2022/12/07 04:46:46;;;;;;;8.68;2.63;;;;;;;7.91;100.00;101594.44;5015298;28;20058;-51
2022/12/07 04:49:13;;;;;;;11.88;3.60;;;;;;;7.78;100.00;101597.53;5015228;28;20034;-50
2022/12/07 04:51:40;;;;;;;13.55;2.40;;;;;;;7.72;100.00;101593.69;4998328;28;20030;-53
2022/12/07 04:54:05;;;;;;;9.85;2.70;;;;;;;7.89;100.00;101587.44;5015320;28;20042;-53
2022/12/07 04:56:31;;;;;;;8.33;2.20;;;;;;;7.89;100.00;101591.94;5015420;28;20114;-53
2022/12/07 04:58:56;;;;;;;9.15;2.00;;;;;;;7.78;100.00;101595.69;5014913;28;20037;-53
2022/12/07 05:01:24;;;;;;;8.10;2.00;;;;;;;7.57;100.00;101591.59;5015251;28;20044;-54
2022/12/07 05:03:50;;;;;;;8.38;2.10;;;;;;;7.92;100.00;101594.28;5015065;28;20275;-53
2022/12/07 05:06:16;;;;;;;7.30;2.33;;;;;;;7.67;100.00;101593.31;5015136;28;20046;-52
2022/12/07 05:08:43;;;;;;;8.57;2.80;;;;;;;7.63;100.00;101591.97;5014546;28;20064;-55
2022/12/07 05:11:37;;;;;;;7.78;1.92;;;;;;;7.80;100.00;101591.06;5015110;28;20027;-51
2022/12/07 05:13:56;;;;;;;11.30;2.28;;;;;;;7.83;100.00;101582.75;5013208;28;20097;-51
2022/12/07 05:16:22;;;;;;;12.10;2.28;;;;;;;7.89;100.00;101583.94;5015219;28;20042;-52
2022/12/07 05:18:47;;;;;;;10.77;2.37;;;;;;;7.91;100.00;101583.78;5014397;28;20122;-50
2022/12/07 05:21:13;;;;;;;6.05;1.92;;;;;;;7.78;100.00;101587.72;4998059;28;20049;-52
2022/12/07 05:23:39;;;;;;;11.17;2.03;;;;;;;7.96;100.00;101592.13;5014473;28;20034;-52
2022/12/07 05:26:04;;;;;;;14.63;2.03;;;;;;;7.92;100.00;101585.47;5014305;28;20090;-52
2022/12/07 05:28:29;;;;;;;6.43;2.13;;;;;;;7.95;100.00;101591.28;5014590;28;20030;-55
2022/12/07 05:30:55;;;;;;;12.23;2.30;;;;;;;7.85;100.00;101583.44;5014230;28;20049;-55
2022/12/07 05:33:20;;;;;;;7.07;2.07;;;;;;;7.88;100.00;101583.13;5014082;28;20069;-55
2022/12/07 05:35:46;;;;;;;5.72;1.60;;;;;;;7.77;100.00;101582.56;5013782;28;20140;-52
2022/12/07 05:38:12;;;;;;;6.27;2.17;;;;;;;7.78;100.00;101585.06;5014464;28;20038;-53
2022/12/07 05:40:37;;;;;;;5.80;2.03;;;;;;;7.79;100.00;101588.56;5014278;28;20080;-53
2022/12/07 05:43:03;;;;;;;11.55;2.65;;;;;;;7.69;100.00;101586.00;5014147;28;20107;-54
2022/12/07 05:45:28;;;;;;;14.43;3.00;;;;;;;7.80;100.00;101580.41;5014305;28;20068;-55
2022/12/07 05:47:54;;;;;;;15.30;2.80;;;;;;;7.72;100.00;101583.03;5013956;28;20077;-55
2022/12/07 05:50:19;;;;;;;7.23;2.53;;;;;;;7.71;100.00;101584.03;5013651;28;20284;-56
2022/12/07 05:52:59;;;;;;;8.57;2.40;;;;;;;7.72;100.00;101575.84;5014554;28;20050;-54
2022/12/07 05:55:25;;;;;;;11.10;2.72;;;;;;;7.62;100.00;101574.34;5014393;28;20031;-53
2022/12/07 06:00:35;;;;;;;8.13;2.92;;;;;;;7.64;100.00;101573.16;5013949;28;20030;-51
2022/12/07 06:03:00;;;;;;;16.75;3.13;;;;;;;7.60;100.00;101572.63;5014145;28;20045;-50
2022/12/07 06:05:25;;;;;;;13.63;4.70;;;;;;;7.86;100.00;101576.28;5013503;28;20034;-55
2022/12/07 06:07:51;;;;;;;12.93;2.80;;;;;;;8.96;100.00;101575.41;5013747;28;20045;-56
2022/12/07 06:10:16;;;;;;;8.03;3.17;;;;;;;9.52;100.00;101582.72;5014076;28;20098;-52
2022/12/07 06:12:43;;;;;;;9.85;2.50;;;;;;;8.20;100.00;101582.56;5013962;28;20038;-53
2022/12/07 06:15:10;;;;;;;9.77;2.60;;;;;;;7.99;100.00;101579.34;5013755;28;20093;-54
2022/12/07 06:17:36;;;;;;;8.43;2.05;;;;;;;7.94;100.00;101586.13;5013959;28;20192;-53
2022/12/07 06:20:02;;;;;;;21.55;2.97;;;;;;;7.79;100.00;101570.75;5013487;28;20034;-54
2022/12/07 06:22:27;;;;;;;16.45;2.47;;;;;;;7.56;100.00;101579.28;5013951;28;20033;-52
2022/12/07 06:24:53;;;;;;;10.73;3.70;;;;;;;7.45;100.00;101584.88;5012305;28;20049;-54
2022/12/07 06:27:19;;;;;;;10.70;2.90;;;;;;;7.55;100.00;101574.13;5012621;28;20324;-56
2022/12/07 06:29:44;;;;;;;13.83;3.17;;;;;;;7.66;100.00;101579.16;5008179;28;20298;-52
2022/12/07 06:32:09;;;;;;;10.47;2.50;;;;;;;7.66;100.00;101579.16;4999722;28;20107;-54
2022/12/07 06:34:35;;;;;;;12.65;2.25;;;;;;;7.70;100.00;101577.03;4996257;28;20039;-56
2022/12/07 06:37:00;;;;;;;11.67;2.57;;;;;;;7.59;100.00;101575.47;4979232;28;20058;-53
2022/12/07 06:39:27;;;;;;;15.32;3.05;;;;;;;7.66;100.00;101573.84;5002187;28;20031;-55
2022/12/07 06:41:53;;;;;;;18.85;2.67;;;;;;;7.45;100.00;101582.22;4996892;28;20030;-53
2022/12/07 06:44:20;;;;;;;11.95;2.50;;;;;;;7.45;100.00;101584.88;4996880;28;20045;-52
2022/12/07 06:46:45;;;;;;;;;;;;;;;7.52;100.00;101585.91;5000179;28;20034;-51
2022/12/07 06:49:11;;;;;;;6.87;2.17;;;;;;;7.50;100.00;101577.25;4998036;28;19914;-54
2022/12/07 06:51:40;;;;;;;13.50;3.08;;;;;;;7.63;100.00;101578.66;4999979;28;20111;-54
2022/12/07 06:54:17;;;;;;;9.52;2.58;;;;;;;7.38;100.00;101581.16;4995261;28;20062;-55
2022/12/07 06:56:42;;;;;;;8.18;2.25;;;;;;;7.53;100.00;101576.94;4997726;28;20038;-56
2022/12/07 06:59:08;;;;;;;8.38;3.08;;;;;;;7.38;100.00;101579.34;5001719;28;20037;-55
2022/12/07 07:01:35;;;;;;;16.10;3.03;;;;;;;7.40;100.00;101582.66;4999748;28;20055;-54
2022/12/07 07:04:01;;;;;;;11.25;2.85;;;;;;;7.39;100.00;101590.81;4999810;28;20075;-55
2022/12/07 07:06:27;;;;;;;12.65;2.92;;;;;;;7.42;100.00;101587.84;5002740;28;20091;-49
2022/12/07 07:08:52;;;;;;;12.15;2.78;;;;;;;7.40;100.00;101587.16;4997464;28;20038;-54
2022/12/07 07:11:18;;;;;;;8.23;2.00;;;;;;;7.37;100.00;101582.13;5000092;28;20035;-52
2022/12/07 07:13:45;;;;;;;12.60;2.67;;;;;;;7.45;100.00;101590.19;4999209;28;20039;-54
2022/12/07 07:16:10;;;;;;;5.18;2.28;;;;;;;7.57;100.00;101591.59;4998701;28;20042;-50
2022/12/07 07:18:36;;;;;;;17.55;2.45;;;;;;;7.59;100.00;101588.78;4996620;28;20037;-48
2022/12/07 07:21:01;;;;;;;7.30;2.20;;;;;;;7.52;100.00;101585.09;5001004;28;20069;-52
2022/12/07 07:23:27;;;;;;;7.47;1.83;;;;;;;7.47;100.00;101588.22;4995633;28;20336;-52
2022/12/07 07:25:53;;;;;;;11.83;3.67;;;;;;;7.46;100.00;101576.72;4998906;28;20038;-52
2022/12/07 07:28:18;;;;;;;11.65;2.47;;;;;;;7.14;100.00;101578.16;5000592;28;20287;-51
2022/12/07 07:30:44;;;;;;;22.50;3.07;;;;;;;7.37;100.00;101587.47;4991268;28;20059;-55
2022/12/07 07:33:10;;;;;;;4.47;1.98;;;;;;;7.28;100.00;101587.41;4993316;28;20090;-53
2022/12/07 07:35:36;;;;;;;8.60;2.70;;;;;;;7.35;100.00;101579.66;4990612;28;20058;-53
2022/12/07 07:38:02;;;;;;;15.97;2.30;;;;;;;7.35;100.00;101584.13;4993000;28;20038;-50
2022/12/07 07:40:29;;;;;;;14.05;3.55;;;;;;;7.32;100.00;101593.25;4992678;28;20304;-51
2022/12/07 07:42:55;;;;;;;12.85;3.20;;;;;;;7.60;100.00;101588.59;4993120;28;20074;-53
2022/12/07 07:45:22;;;;;;;7.97;2.65;;;;;;;7.69;100.00;101586.84;4993188;28;20050;-53
2022/12/07 07:47:48;;;;;;;14.82;2.97;;;;;;;7.71;100.00;101589.34;4993076;28;20107;-52
2022/12/07 07:50:14;;;;;;;8.90;2.35;;;;;;;7.68;100.00;101590.50;4991667;28;20042;-53
2022/12/07 07:52:40;;;;;;;12.50;3.30;;;;;;;7.69;100.00;101591.34;4993259;28;20049;-55
2022/12/07 07:55:08;;;;;;;10.13;2.50;;;;;;;7.70;100.00;101585.84;4991639;28;20043;-50
2022/12/07 07:57:39;;;;;;;11.43;2.70;;;;;;;7.63;100.00;101586.66;4996710;28;20038;-53
2022/12/07 08:00:12;;;;;;;12.35;2.63;;;;;;;7.73;100.00;101588.22;4976902;28;20042;-55
2022/12/07 08:02:38;;;;;;;16.77;2.75;;;;;;;7.75;100.00;101594.22;4988372;28;20041;-54
2022/12/07 08:05:04;;;;;;;11.88;3.08;;;;;;;7.40;100.00;101587.16;4990272;28;20039;-52
2022/12/07 08:07:30;;;;;;;17.55;2.95;;;;;;;7.46;100.00;101599.84;4995509;28;20063;-54
2022/12/07 08:09:55;;;;;;;11.40;2.80;;;;;;;7.60;100.00;101604.56;4995467;28;20039;-55
2022/12/07 08:12:21;;;;;;;8.60;2.73;;;;;;;7.45;100.00;101603.50;4994083;28;20039;-55
2022/12/07 08:14:47;;;;;;;9.80;2.40;;;;;;;7.60;100.00;101601.09;4996072;28;20296;-51
2022/12/07 08:17:13;;;;;;;11.00;2.17;;;;;;;7.56;100.00;101602.41;4992915;28;20033;-54
2022/12/07 08:19:39;;;;;;;13.30;2.37;;;;;;;7.70;100.00;101601.81;4996352;28;20038;-52
2022/12/07 08:22:04;;;;;;;12.17;2.80;;;;;;;7.60;100.00;101599.25;4992924;28;20048;-53
2022/12/07 08:24:30;;;;;;;12.33;3.03;;;;;;;7.78;100.00;101601.03;4995440;28;20035;-54
2022/12/07 08:26:55;;;;;;;9.83;2.93;;;;;;;7.67;100.00;101596.81;4978840;28;20312;-52
2022/12/07 08:29:21;;;;;;;11.80;2.73;;;;;;;7.85;100.00;101594.09;5001219;28;20073;-55
2022/12/07 08:31:46;;;;;;;11.65;3.45;;;;;;;7.80;100.00;101598.22;5015075;28;20042;-50
2022/12/07 08:34:13;;;;;;;10.98;2.63;;;;;;;7.85;100.00;101593.25;5015068;28;20430;-50
2022/12/07 08:36:39;;;;;;;12.57;3.05;;;;;;;7.83;100.00;101600.56;5014653;28;20066;-55
2022/12/07 08:39:05;;;;;;;14.88;3.25;;;;;;;7.77;100.00;101603.88;5015038;28;20042;-52
2022/12/07 08:41:31;;;;;;;11.43;2.78;;;;;;;7.75;100.00;101606.69;5014619;28;20038;-55
2022/12/07 08:43:56;;;;;;;12.53;3.40;;;;;;;7.92;100.00;101606.78;4997127;28;20046;-54
2022/12/07 08:46:33;;;;;;;5.45;2.75;;;;;;;7.75;100.00;101604.88;5013855;28;20034;-52
2022/12/07 08:49:09;;;;;;;4.68;2.03;;;;;;;7.77;100.00;101602.03;5012687;28;20042;-52
2022/12/07 08:51:35;;;;;;;12.18;2.67;;;;;;;8.05;100.00;101612.47;5014258;28;20113;-54
2022/12/07 08:54:05;;;;;;;12.02;3.17;;;;;;;7.97;100.00;101609.78;5013955;28;20046;-51
2022/12/07 08:56:31;;;;;;;9.65;2.90;;;;;;;7.81;100.00;101605.22;5014964;28;20042;-53
2022/12/07 08:58:57;;;;;;;13.75;5.13;;;;;;;8.10;100.00;101607.53;5014549;28;20041;-54
2022/12/07 09:01:23;;;;;;;11.67;2.90;;;;;;;8.50;100.00;101609.66;5014226;28;20038;-55
2022/12/07 09:03:48;;;;;;;10.60;3.47;;;;;;;8.87;100.00;101611.91;5014266;28;20061;-53
2022/12/07 09:06:14;;;;;;;14.77;3.72;;;;;;;8.91;100.00;101606.28;5013824;28;20034;-50
2022/12/07 09:08:45;;;;;;;9.13;2.73;;;;;;;9.17;100.00;101616.75;5014048;28;20030;-53
2022/12/07 09:11:11;;;;;;;6.65;2.28;;;;;;;9.42;100.00;101608.75;5014528;28;20105;-52
2022/12/07 09:13:36;;;;;;;10.80;2.10;;;;;;;9.17;100.00;101611.44;5013445;28;20039;-53
2022/12/07 09:16:02;;;;;;;11.18;2.47;;;;;;;9.04;100.00;101623.44;5014196;28;20049;-50
2022/12/07 09:18:27;;;;;;;18.23;2.80;;;;;;;9.48;100.00;101616.09;5013590;28;20038;-54
2022/12/07 09:20:53;;;;;;;8.83;2.43;;;;;;;9.40;100.00;101614.25;5007590;28;20343;-56
2022/12/07 09:23:18;;;;;;;11.40;2.57;;;;;;;9.63;100.00;101620.72;5009525;28;20069;-54
2022/12/07 09:25:44;;;;;;;15.60;3.40;;;;;;;9.83;100.00;101615.84;5010307;28;20286;-54
2022/12/07 09:28:09;;;;;;;14.80;2.10;;;;;;;10.01;100.00;101620.97;5008112;28;20032;-51
2022/12/07 09:30:35;;;;;;;7.60;1.77;;;;;;;10.04;100.00;101613.44;4995740;28;20050;-53
2022/12/07 09:33:01;;;;;;;10.53;1.83;;;;;;;10.60;100.00;101622.38;5006931;28;20038;-54
2022/12/07 09:35:27;;;;;;;11.70;2.20;;;;;;;10.79;100.00;101620.28;5010692;28;20038;-55
2022/12/07 09:37:53;;;;;;;12.98;2.20;;;;;;;10.51;100.00;101620.78;5011568;28;20065;-53
2022/12/07 09:40:21;;;;;;;7.22;2.58;;;;;;;10.14;100.00;101613.22;5011709;28;20053;-50
2022/12/07 09:42:53;;;;;;;10.25;2.58;;;;;;;9.94;100.00;101612.00;5001518;28;20034;-53
2022/12/07 09:45:23;;;;;;;17.73;3.17;;;;;;;9.59;100.00;101615.72;5004849;28;20090;-55
2022/12/07 09:47:49;;;;;;;9.95;2.80;;;;;;;9.41;100.00;101618.59;5003343;28;20035;-54
2022/12/07 09:50:20;;;;;;;9.85;2.63;;;;;;;9.85;100.00;101614.66;5004276;28;20057;-53
2022/12/07 09:52:47;;;;;;;13.48;2.55;;;;;;;9.76;100.00;101616.53;5012433;28;20057;-50
2022/12/07 09:55:21;;;;;;;15.88;2.80;;;;;;;9.98;100.00;101611.44;5012807;28;20030;-52
2022/12/07 09:57:46;;;;;;;10.30;3.13;;;;;;;10.02;100.00;101615.44;5011322;28;20041;-49
2022/12/07 10:00:16;;;;;;;13.48;2.75;;;;;;;10.22;100.00;101614.22;5013239;28;20034;-49
2022/12/07 10:02:59;;;;;;;10.75;3.63;;;;;;;10.22;100.00;101614.22;5011663;28;20066;-53
2022/12/07 10:05:30;;;;;;;13.00;3.08;;;;;;;10.25;100.00;101597.81;5009442;28;20087;-48
2022/12/07 10:07:55;;;;;;;11.98;2.65;;;;;;;10.43;100.00;101603.78;5011061;28;20038;-51
2022/12/07 10:10:30;;;;;;;9.40;2.45;;;;;;;10.79;100.00;101604.22;5012557;28;20042;-52
2022/12/07 10:13:00;;;;;;;13.85;2.72;;;;;;;10.81;100.00;101597.69;5012385;28;20034;-52
2022/12/07 10:15:54;;;;;;;12.30;3.10;;;;;;;10.77;100.00;101596.38;5012022;28;20034;-51
2022/12/07 10:18:31;;;;;;;15.90;2.70;;;;;;;10.53;100.00;101592.88;5009705;28;20295;-50
2022/12/07 10:21:02;;;;;;;8.57;1.90;;;;;;;10.90;100.00;101590.44;5004796;28;20094;-55
2022/12/07 10:23:28;;;;;;;25.13;3.22;;;;;;;10.71;100.00;101589.91;5004787;28;20022;-54
2022/12/07 10:25:54;;;;;;;10.60;2.70;;;;;;;10.94;100.00;101594.41;5007017;28;20057;-51
2022/12/07 10:28:21;;;;;;;14.57;2.83;;;;;;;10.91;100.00;101586.75;5008849;28;20065;-54
2022/12/07 10:30:58;;;;;;;15.43;2.70;;;;;;;12.07;100.00;101585.63;4994795;28;20293;-53
2022/12/07 10:33:30;;;;;;;5.73;2.03;;;;;;;12.12;100.00;101577.84;4996052;28;20062;-54
2022/12/07 10:35:56;;;;;;;8.17;1.90;;;;;;;11.32;100.00;101570.34;4990380;28;20261;-49
2022/12/07 10:38:27;;;;;;;8.10;2.35;;;;;;;11.43;100.00;101568.22;4991678;28;20279;-51
2022/12/07 10:41:07;;;;;;;10.33;2.03;;;;;;;12.07;100.00;101582.94;4987437;28;20043;-53
2022/12/07 10:43:33;;;;;;;6.27;2.27;;;;;;;13.43;100.00;101570.63;4993254;28;20291;-54
2022/12/07 10:46:16;;;;;;;14.00;2.90;;;;;;;15.52;100.00;101575.69;4994942;28;20288;-55
2022/12/07 10:49:05;;;;;;;9.03;2.20;;;;;;;16.99;100.00;101576.88;4998610;28;20073;-54
2022/12/07 10:52:09;;;;;;;7.20;2.13;;;;;;;15.72;100.00;101573.75;5000921;28;20281;-56
2022/12/07 10:54:54;;;;;;;12.00;2.50;;;;;;;14.87;100.00;101571.78;4895921;29;20390;-52
2022/12/07 10:57:35;;;;;;;7.93;2.13;;;;;;;14.75;100.00;101553.53;4983447;28;20285;-56
2022/12/07 11:00:10;;;;;;;8.77;2.67;;;;;;;15.50;100.00;101557.03;4988895;28;20877;-56
2022/12/07 11:03:02;;;;;;;7.37;2.10;;;;;;;16.34;100.00;101559.84;4997000;28;20284;-53
2022/12/07 11:05:46;;;;;;;10.77;2.13;;;;;;;16.50;100.00;101555.00;4990402;28;20304;-52
2022/12/07 11:08:21;;;;;;;7.00;1.67;;;;;;;17.31;100.00;101557.06;4976442;28;20045;-53
2022/12/07 11:10:59;;;;;;;12.57;2.20;;;;;;;17.55;98.97;101551.81;4984108;28;20027;-53
2022/12/07 11:14:07;;;;;;;5.53;1.63;;;;;;;19.93;84.27;101560.44;4991772;28;20039;-55
2022/12/07 11:16:52;;;;;;;9.07;1.70;;;;;;;20.02;80.43;101560.91;4971695;28;20102;-56
2022/12/07 11:19:51;;;;;;;6.37;1.73;;;;;;;18.78;81.97;101551.66;4994832;28;20045;-54
2022/12/07 11:22:23;;;;;;;;;;;;;;;18.60;88.65;101541.75;4991507;28;20238;-52
2022/12/07 11:24:59;;;;;;;7.87;1.70;;;;;;;20.40;81.38;101545.88;4996153;28;19973;-54
2022/12/07 11:27:47;;;;;;;6.60;1.63;;;;;;;20.68;71.17;101546.88;4995280;28;20098;-55
2022/12/07 11:30:23;;;;;;;5.63;1.27;;;;;;;19.06;72.66;101541.22;5005262;28;20049;-52
2022/12/07 11:32:52;;;;;;;7.50;1.55;;;;;;;16.93;86.69;101537.22;5015477;28;20042;-55
2022/12/07 11:35:55;;;;;;;8.33;1.10;;;;;;;16.58;95.46;101543.91;5014956;28;20030;-54